Time;durP1;ratioP1;P1;durP2;ratioP2;P2;SDS_P1;SDS_P2;PMS_P1;PMS_P2;Temp;Humidity;BMP_temperature;BMP_pressure;BME280_temperature;BME280_humidity;BME280_pressure;Samples;Min_cycle;Max_cycle;Signal;HPM_P1;HPM_P2
2023/01/02 00:00:33;;;;;;;;;;;;;;;21.12;27.90;99257.59;5039615;28;1564;-80
2023/01/02 00:02:58;;;;;;;;;;;;;;;21.30;27.76;99252.72;5058958;28;973;-80
2023/01/02 00:05:24;;;;;;;;;;;;;;;21.40;27.46;99244.53;5058786;28;932;-81
2023/01/02 00:07:49;;;;;;;;;;;;;;;21.10;27.96;99254.41;5058911;28;901;-80
2023/01/02 00:10:15;;;;;;;;;;;;;;;21.17;28.05;99248.69;5058948;28;991;-80
2023/01/02 00:12:40;;;;;;;;;;;;;;;20.78;28.30;99248.88;5058713;28;922;-80
2023/01/02 00:15:06;;;;;;;;;;;;;;;20.64;28.76;99235.56;5057621;28;1520;-80
2023/01/02 00:17:31;;;;;;;;;;;;;;;21.16;28.07;99240.63;5058906;28;2067;-79
2023/01/02 00:19:57;;;;;;;;;;;;;;;21.28;27.73;99238.09;5058436;28;872;-80
2023/01/02 00:22:22;;;;;;;;;;;;;;;21.28;27.61;99235.28;5040078;28;1134;-79
2023/01/02 00:24:48;;;;;;;;;;;;;;;20.96;28.20;99237.47;5058299;28;1027;-80
2023/01/02 00:27:13;;;;;;;;;;;;;;;20.71;28.62;99229.88;5058822;28;954;-81
2023/01/02 00:29:39;;;;;;;;;;;;;;;20.58;28.84;99240.03;5056566;28;1461;-80
2023/01/02 00:32:04;;;;;;;;;;;;;;;21.15;28.06;99239.81;5058530;28;913;-80
2023/01/02 00:34:30;;;;;;;;;;;;;;;21.18;27.67;99233.31;5057696;28;1322;-79
2023/01/02 00:36:55;;;;;;;;;;;;;;;21.45;27.62;99229.94;5039550;28;1973;-80
2023/01/02 00:39:21;;;;;;;;;;;;;;;20.86;28.27;99230.66;5057972;28;922;-80
2023/01/02 00:41:46;;;;;;;;;;;;;;;20.77;28.28;99230.28;5058453;28;1173;-80
2023/01/02 00:44:12;;;;;;;;;;;;;;;20.66;28.68;99227.47;5057199;28;1470;-80
2023/01/02 00:46:37;;;;;;;;;;;;;;;21.07;27.78;99227.72;5058664;28;916;-80
2023/01/02 00:49:03;;;;;;;;;;;;;;;21.14;27.86;99224.06;5057819;28;830;-80
2023/01/02 00:51:28;;;;;;;;;;;;;;;21.10;27.67;99228.13;5072666;28;974;-80
2023/01/02 00:53:54;;;;;;;;;;;;;;;20.86;28.06;99227.00;5057655;28;1053;-80
2023/01/02 00:56:19;;;;;;;;;;;;;;;20.67;28.35;99214.94;5058503;28;1975;-80
2023/01/02 00:58:45;;;;;;;;;;;;;;;20.75;28.43;99210.88;5056318;28;1463;-80
2023/01/02 01:01:10;;;;;;;;;;;;;;;21.29;27.71;99219.91;5058164;28;925;-80
2023/01/02 01:03:36;;;;;;;;;;;;;;;21.36;27.35;99218.31;5057734;28;929;-80
2023/01/02 01:06:06;;;;;;;;;;;;;;;21.30;27.41;99207.41;5057922;28;906;-80
2023/01/02 01:08:31;;;;;;;;;;;;;;;20.91;27.98;99212.44;5057371;28;969;-80
2023/01/02 01:10:57;;;;;;;;;;;;;;;20.85;28.11;99208.44;5057357;28;1530;-80
2023/01/02 01:13:22;;;;;;;;;;;;;;;20.63;28.65;99208.53;5056372;28;1484;-81
2023/01/02 01:15:47;;;;;;;;;;;;;;;21.06;28.10;99202.66;5057977;28;1906;-79
2023/01/02 01:18:13;;;;;;;;;;;;;;;21.16;27.46;99201.78;5057661;28;894;-80
2023/01/02 01:20:38;;;;;;;;;;;;;;;21.35;27.32;99206.16;5057980;28;1007;-80
2023/01/02 01:23:04;;;;;;;;;;;;;;;20.98;27.58;99196.22;5057491;28;897;-81
2023/01/02 01:25:29;;;;;;;;;;;;;;;20.84;27.91;99198.34;5057374;28;1119;-80
2023/01/02 01:27:55;;;;;;;;;;;;;;;20.90;27.87;99205.19;5056378;28;1454;-80
2023/01/02 01:30:20;;;;;;;;;;;;;;;21.27;27.50;99196.88;5056906;28;1597;-79
2023/01/02 01:32:46;;;;;;;;;;;;;;;21.30;27.50;99195.28;5057228;28;1157;-80
2023/01/02 01:35:11;;;;;;;;;;;;;;;21.21;27.39;99192.88;5057256;28;932;-80
2023/01/02 01:37:37;;;;;;;;;;;;;;;20.98;27.68;99184.91;5057718;28;1977;-79
2023/01/02 01:40:03;;;;;;;;;;;;;;;20.69;28.45;99201.22;5057296;28;840;-80
2023/01/02 01:42:32;;;;;;;;;;;;;;;20.83;28.19;99188.22;5057950;28;939;-80
2023/01/02 01:44:57;;;;;;;;;;;;;;;21.14;27.61;99187.28;5055179;28;1415;-79
2023/01/02 01:47:26;;;;;;;;;;;;;;;21.33;27.24;99183.91;5057567;28;1176;-81
2023/01/02 01:49:57;;;;;;;;;;;;;;;21.18;27.54;99182.38;5057467;28;905;-80
2023/01/02 01:52:23;;;;;;;;;;;;;;;20.89;27.86;99186.59;5055729;28;1440;-81
2023/01/02 01:54:50;;;;;;;;;;;;;;;20.72;28.03;99183.41;5056174;28;968;-80
2023/01/02 01:57:25;;;;;;;;;;;;;;;20.93;28.08;99190.19;5057758;28;1914;-80
2023/01/02 01:59:50;;;;;;;;;;;;;;;21.17;27.72;99186.41;5056844;28;931;-80
2023/01/02 02:02:16;;;;;;;;;;;;;;;21.38;27.44;99190.38;5056175;28;1593;-81
2023/01/02 02:04:41;;;;;;;;;;;;;;;21.07;27.61;99179.59;5057224;28;1037;-79
2023/01/02 02:07:07;;;;;;;;;;;;;;;20.88;28.10;99176.47;5056583;28;1165;-80
2023/01/02 02:09:34;;;;;;;;;;;;;;;20.75;28.33;99171.28;5034914;28;1094;-79
2023/01/02 02:12:00;;;;;;;;;;;;;;;21.17;27.78;99172.28;5018702;28;903;-80
2023/01/02 02:14:25;;;;;;;;;;;;;;;21.29;27.56;99174.59;5015648;28;1378;-78
2023/01/02 02:16:59;;;;;;;;;;;;;;;21.27;27.65;99168.56;5033399;28;1914;-80
2023/01/02 02:19:31;;;;;;;;;;;;;;;21.13;27.49;99159.34;5034783;28;1075;-80
2023/01/02 02:22:01;;;;;;;;;;;;;;;20.76;28.22;99161.56;5035286;28;1032;-80
2023/01/02 02:24:45;;;;;;;;;;;;;;;20.74;28.28;99163.22;5018068;28;1007;-79
2023/01/02 02:27:28;;;;;;;;;;;;;;;21.09;27.88;99162.22;5035396;28;1068;-78
2023/01/02 02:29:54;;;;;;;;;;;;;;;21.36;27.66;99164.50;5033547;28;1602;-80
2023/01/02 02:32:22;;;;;;;;;;;;;;;21.28;27.43;99156.00;5034757;28;1179;-80
2023/01/02 02:34:47;;;;;;;;;;;;;;;21.01;27.75;99155.00;4999708;28;991;-80
2023/01/02 02:37:21;;;;;;;;;;;;;;;20.79;28.22;99162.78;5018965;28;1983;-79
2023/01/02 02:40:05;;;;;;;;;;;;;;;20.92;28.30;99165.94;5003102;28;1204;-80
2023/01/02 02:42:46;;;;;;;;;;;;;;;21.57;27.30;99158.69;5020793;28;979;-80
2023/01/02 02:45:18;;;;;;;;;;;;;;;21.49;27.16;99168.44;5018990;28;1517;-80
2023/01/02 02:48:04;;;;;;;;;;;;;;;21.00;27.93;99170.38;5021069;28;892;-80
2023/01/02 02:50:30;;;;;;;;;;;;;;;20.80;28.40;99162.38;5019766;28;925;-79
2023/01/02 02:52:57;;;;;;;;;;;;;;;20.59;28.46;99162.47;5020714;28;925;-80
2023/01/02 02:55:33;;;;;;;;;;;;;;;21.11;27.80;99159.78;5019235;28;939;-80
2023/01/02 02:57:58;;;;;;;;;;;;;;;21.45;27.48;99156.31;5019170;28;1914;-80
2023/01/02 03:00:24;;;;;;;;;;;;;;;21.29;27.44;99170.97;5020109;28;1523;-80
2023/01/02 03:02:49;;;;;;;;;;;;;;;20.90;28.03;99157.06;5018929;28;888;-80
2023/01/02 03:05:32;;;;;;;;;;;;;;;20.99;27.88;99171.59;5002529;28;930;-80
2023/01/02 03:07:59;;;;;;;;;;;;;;;20.86;28.27;99164.78;5019175;28;956;-80
2023/01/02 03:10:30;;;;;;;;;;;;;;;21.18;28.06;99159.72;5019120;28;903;-79
2023/01/02 03:13:00;;;;;;;;;;;;;;;21.36;27.79;99154.00;5020176;28;918;-81
2023/01/02 03:15:27;;;;;;;;;;;;;;;21.28;27.66;99158.84;5018888;28;1462;-81
2023/01/02 03:18:08;;;;;;;;;;;;;;;21.04;27.86;99171.16;5020250;28;1914;-80
2023/01/02 03:20:37;;;;;;;;;;;;;;;20.86;28.37;99170.44;5019993;28;905;-79
2023/01/02 03:23:04;;;;;;;;;;;;;;;20.94;27.92;99160.69;5020300;28;932;-79
2023/01/02 03:25:30;;;;;;;;;;;;;;;20.92;28.57;99161.09;5018887;28;949;-81
2023/01/02 03:27:57;;;;;;;;;;;;;;;21.21;27.89;99167.41;5018244;28;944;-80
2023/01/02 03:30:23;;;;;;;;;;;;;;;21.35;27.62;99168.53;5017248;28;1555;-81
2023/01/02 03:33:18;;;;;;;;;;;;;;;21.19;27.85;99164.19;5027156;28;1037;-80
2023/01/02 03:35:53;;;;;;;;;;;;;;;20.78;28.49;99167.66;4998334;28;985;-80
2023/01/02 03:38:23;;;;;;;;;;;;;;;20.94;28.06;99166.34;4981628;28;1031;-80
2023/01/02 03:40:49;;;;;;;;;;;;;;;21.18;28.02;99154.06;4982117;28;947;-80
2023/01/02 03:43:22;;;;;;;;;;;;;;;21.11;28.23;99162.59;4981145;28;1041;-80
2023/01/02 03:45:50;;;;;;;;;;;;;;;21.32;27.80;99158.88;4996483;28;1480;-80
2023/01/02 03:48:21;;;;;;;;;;;;;;;21.07;28.03;99159.00;4980729;28;1277;-79
2023/01/02 03:50:50;;;;;;;;;;;;;;;20.91;28.40;99161.50;4980809;28;1481;-80
2023/01/02 03:53:16;;;;;;;;;;;;;;;20.70;28.26;99157.56;4996705;28;1590;-80
2023/01/02 03:55:42;;;;;;;;;;;;;;;20.89;28.32;99163.97;4997799;28;1141;-80
2023/01/02 03:58:22;;;;;;;;;;;;;;;21.11;28.17;99159.78;4981126;28;1918;-80
2023/01/02 04:00:52;;;;;;;;;;;;;;;21.29;27.64;99159.66;4997988;28;1411;-80
2023/01/02 04:03:20;;;;;;;;;;;;;;;21.03;27.84;99169.53;4980609;28;997;-80
2023/01/02 04:06:08;;;;;;;;;;;;;;;20.96;28.03;99169.56;4980640;28;1735;-80
2023/01/02 04:08:45;;;;;;;;;;;;;;;20.89;28.26;99175.28;4919488;29;1635;-80
2023/01/02 04:11:11;;;;;;;;;;;;;;;20.86;28.48;99173.25;4947167;28;1470;-80
2023/01/02 04:13:38;;;;;;;;;;;;;;;21.36;27.66;99173.00;4996066;28;1526;-80
2023/01/02 04:16:03;;;;;;;;;;;;;;;21.54;27.26;99170.81;4981151;28;1906;-80
2023/01/02 04:18:30;;;;;;;;;;;;;;;21.10;27.83;99180.81;4980601;28;1044;-80
2023/01/02 04:20:57;;;;;;;;;;;;;;;20.91;28.33;99178.50;4981005;28;969;-80
2023/01/02 04:23:27;;;;;;;;;;;;;;;20.68;28.70;99177.00;4979968;28;969;-80
2023/01/02 04:25:53;;;;;;;;;;;;;;;20.64;28.79;99164.88;4996244;28;1488;-80
2023/01/02 04:28:21;;;;;;;;;;;;;;;21.31;27.77;99175.03;4996575;28;995;-80
2023/01/02 04:30:48;;;;;;;;;;;;;;;21.32;27.93;99185.16;4997699;28;999;-80
2023/01/02 04:33:13;;;;;;;;;;;;;;;21.25;27.56;99188.00;4996422;28;1218;-80
2023/01/02 04:35:39;;;;;;;;;;;;;;;20.98;28.25;99184.91;4981124;28;951;-80
2023/01/02 04:38:08;;;;;;;;;;;;;;;20.86;28.36;99173.25;4996153;28;1914;-80
2023/01/02 04:40:36;;;;;;;;;;;;;;;20.96;28.23;99180.88;4995981;28;1535;-81
2023/01/02 04:43:03;;;;;;;;;;;;;;;21.23;27.67;99173.44;4996595;28;997;-80
2023/01/02 04:45:29;;;;;;;;;;;;;;;21.52;27.34;99190.28;5015310;28;1169;-81
2023/01/02 04:47:54;;;;;;;;;;;;;;;21.03;27.96;99181.63;5056703;28;1353;-79
2023/01/02 04:50:20;;;;;;;;;;;;;;;20.79;28.20;99188.25;5057716;28;1315;-80
2023/01/02 04:52:45;;;;;;;;;;;;;;;20.80;28.14;99185.00;5058399;28;899;-78
2023/01/02 04:55:11;;;;;;;;;;;;;;;20.89;28.32;99186.59;5057636;28;1547;-80
2023/01/02 04:57:36;;;;;;;;;;;;;;;21.02;28.24;99191.34;5032731;28;1975;-79
2023/01/02 05:00:02;;;;;;;;;;;;;;;21.14;27.93;99192.94;5056468;28;1367;-80
2023/01/02 05:02:28;;;;;;;;;;;;;;;20.97;28.13;99193.81;5056754;28;1201;-80
2023/01/02 05:04:53;;;;;;;;;;;;;;;20.88;28.17;99184.97;5057295;28;1177;-80
2023/01/02 05:07:19;;;;;;;;;;;;;;;21.02;28.55;99190.56;5056737;28;1178;-81
2023/01/02 05:09:44;;;;;;;;;;;;;;;21.10;27.94;99186.47;5028005;28;1273;-80
2023/01/02 05:12:09;;;;;;;;;;;;;;;21.28;28.03;99192.81;5056879;28;1201;-80
2023/01/02 05:14:35;;;;;;;;;;;;;;;21.04;27.93;99188.13;5057376;28;1391;-80
2023/01/02 05:17:00;;;;;;;;;;;;;;;20.84;28.41;99190.66;5057727;28;1914;-80
2023/01/02 05:19:26;;;;;;;;;;;;;;;20.68;28.37;99177.00;5056968;28;1181;-80
2023/01/02 05:24:36;;;;;;;;;;;;;;;21.31;27.60;99203.34;5033265;28;1415;-80
2023/01/02 05:27:01;;;;;;;;;;;;;;;21.37;27.54;99194.44;5057455;28;1252;-80
2023/01/02 05:29:26;;;;;;;;;;;;;;;21.02;28.08;99190.56;5056632;28;1185;-80
2023/01/02 05:31:52;;;;;;;;;;;;;;;20.92;28.15;99203.53;5057509;28;1244;-79
2023/01/02 05:34:17;;;;;;;;;;;;;;;20.81;28.58;99197.91;5056852;28;1236;-79
2023/01/02 05:36:43;;;;;;;;;;;;;;;21.07;28.09;99198.59;5057358;28;1898;-79
2023/01/02 05:39:10;;;;;;;;;;;;;;;21.30;27.79;99195.28;5056867;28;1198;-80
2023/01/02 05:41:38;;;;;;;;;;;;;;;21.21;28.06;99198.53;5057527;28;1268;-79
2023/01/02 05:44:04;;;;;;;;;;;;;;;20.91;28.19;99206.78;5057477;28;946;-79
2023/01/02 05:46:29;;;;;;;;;;;;;;;20.90;28.49;99202.34;5057825;28;963;-79
2023/01/02 05:48:54;;;;;;;;;;;;;;;20.96;28.40;99197.88;5056951;28;881;-79
2023/01/02 05:51:20;;;;;;;;;;;;;;;21.26;27.60;99200.94;5057979;28;875;-79
2023/01/02 05:53:46;;;;;;;;;;;;;;;21.40;27.85;99204.91;5056918;28;1136;-79
2023/01/02 05:56:13;;;;;;;;;;;;;;;21.61;27.24;99203.97;5057894;28;1910;-79
2023/01/02 05:58:39;;;;;;;;;;;;;;;20.97;28.32;99199.47;5055961;28;994;-79
2023/01/02 06:01:05;;;;;;;;;;;;;;;21.01;28.15;99201.06;5058122;28;1077;-78
2023/01/02 06:03:30;;;;;;;;;;;;;;;20.80;28.61;99201.16;5055645;28;1027;-79
2023/01/02 06:05:56;;;;;;;;;;;;;;;20.96;28.35;99209.97;5058085;28;953;-80
2023/01/02 06:08:21;;;;;;;;;;;;;;;21.39;27.68;99208.97;5057010;28;967;-80
2023/01/02 06:10:50;;;;;;;;;;;;;;;21.21;27.91;99209.84;5061232;28;895;-79
2023/01/02 06:13:15;;;;;;;;;;;;;;;20.99;28.06;99225.34;5042888;28;921;-79
2023/01/02 06:15:41;;;;;;;;;;;;;;;20.68;28.48;99222.25;5061496;28;912;-78
2023/01/02 06:18:06;;;;;;;;;;;;;;;20.81;28.49;99220.56;5061036;28;1903;-79
2023/01/02 06:20:32;;;;;;;;;;;;;;;21.00;28.39;99221.28;5061507;28;962;-79
2023/01/02 06:22:57;;;;;;;;;;;;;;;21.39;27.53;99221.09;5060553;28;916;-79
2023/01/02 06:25:23;;;;;;;;;;;;;;;21.27;27.74;99225.19;5061166;28;932;-79
2023/01/02 06:27:48;;;;;;;;;;;;;;;21.19;27.77;99223.63;5059927;28;962;-79
2023/01/02 06:30:13;;;;;;;;;;;;;;;20.87;28.40;99225.78;5059318;28;1343;-79
2023/01/02 06:32:39;;;;;;;;;;;;;;;20.73;28.62;99221.81;5060934;28;1163;-79
2023/01/02 06:35:05;;;;;;;;;;;;;;;21.06;28.03;99230.97;5060942;28;907;-79
2023/01/02 06:37:30;;;;;;;;;;;;;;;21.20;27.91;99225.22;5042130;28;1910;-80
2023/01/02 06:39:56;;;;;;;;;;;;;;;21.22;27.67;99219.94;5060715;28;1022;-79
2023/01/02 06:42:21;;;;;;;;;;;;;;;20.79;28.49;99223.00;5059874;28;1201;-77
2023/01/02 06:44:46;;;;;;;;;;;;;;;20.86;28.20;99229.84;5060380;28;1051;-79
2023/01/02 06:47:12;;;;;;;;;;;;;;;20.69;28.53;99223.84;5061042;28;1040;-79
2023/01/02 06:49:37;;;;;;;;;;;;;;;21.04;28.13;99234.22;5059988;28;928;-79
2023/01/02 06:52:03;;;;;;;;;;;;;;;21.26;27.51;99234.91;5060437;28;994;-79
2023/01/02 06:54:28;;;;;;;;;;;;;;;21.39;27.43;99234.44;5060390;28;1051;-79
2023/01/02 06:56:54;;;;;;;;;;;;;;;21.28;27.56;99226.78;5060616;28;1981;-79
2023/01/02 06:59:19;;;;;;;;;;;;;;;21.15;27.62;99228.50;5060405;28;885;-79
2023/01/02 07:01:44;;;;;;;;;;;;;;;20.80;28.34;99230.25;5059162;28;1044;-79
2023/01/02 07:04:19;;;;;;;;;;;;;;;20.89;28.12;99231.84;5059768;28;1063;-79
2023/01/02 07:06:44;;;;;;;;;;;;;;;20.96;28.17;99231.81;5060290;28;1090;-79
2023/01/02 07:09:10;;;;;;;;;;;;;;;20.94;27.75;99200.31;5059748;28;976;-79
2023/01/02 07:11:37;;;;;;;;;;;;;;;21.33;27.75;99240.53;5060204;28;984;-79
2023/01/02 07:14:02;;;;;;;;;;;;;;;20.96;28.14;99237.47;5059428;28;961;-78
2023/01/02 07:16:27;;;;;;;;;;;;;;;20.87;28.47;99229.41;5059773;28;1963;-78
2023/01/02 07:18:53;;;;;;;;;;;;;;;20.69;28.45;99234.34;5059424;28;1052;-79
2023/01/02 07:21:18;;;;;;;;;;;;;;;21.05;27.97;99243.50;5060251;28;1328;-79
2023/01/02 07:23:44;;;;;;;;;;;;;;;21.15;27.74;99237.00;5058750;28;947;-79
2023/01/02 07:26:09;;;;;;;;;;;;;;;21.38;27.36;99224.34;5059905;28;1028;-79
2023/01/02 07:28:35;;;;;;;;;;;;;;;20.97;28.00;99236.25;5058651;28;957;-79
2023/01/02 07:31:01;;;;;;;;;;;;;;;20.79;28.26;99239.16;5060221;28;1025;-79
2023/01/02 07:33:27;;;;;;;;;;;;;;;20.76;28.20;99232.28;5059160;28;1147;-79
2023/01/02 07:35:56;;;;;;;;;;;;;;;20.99;27.95;99236.66;5041076;28;981;-79
2023/01/02 07:38:21;;;;;;;;;;;;;;;21.28;27.60;99238.09;5040285;28;1890;-79
2023/01/02 07:40:47;;;;;;;;;;;;;;;21.18;27.84;99238.16;5059914;28;920;-79
2023/01/02 07:43:12;;;;;;;;;;;;;;;20.97;28.21;99239.88;5059043;28;928;-79
2023/01/02 07:45:38;;;;;;;;;;;;;;;20.98;28.33;99235.84;5059713;28;1138;-79
2023/01/02 07:48:03;;;;;;;;;;;;;;;21.06;27.91;99242.28;5058839;28;1232;-78
2023/01/02 07:50:29;;;;;;;;;;;;;;;21.23;27.84;99244.22;5058914;28;966;-79
2023/01/02 07:52:54;;;;;;;;;;;;;;;21.38;27.45;99241.34;5056875;28;1022;-79
2023/01/02 07:55:20;;;;;;;;;;;;;;;21.02;27.96;99242.28;5058935;28;961;-79
2023/01/02 07:57:47;;;;;;;;;;;;;;;20.78;28.22;99241.19;5059244;28;1879;-79
2023/01/02 08:00:13;;;;;;;;;;;;;;;20.73;28.66;99235.97;5057603;28;1018;-78
2023/01/02 08:02:38;;;;;;;;;;;;;;;20.49;29.01;99231.19;5039862;28;962;-79
2023/01/02 08:05:04;;;;;;;;;;;;;;;20.71;28.64;99232.72;5058389;28;920;-79
2023/01/02 08:07:29;;;;;;;;;;;;;;;21.17;27.81;99231.72;5039917;28;879;-80
2023/01/02 08:09:54;;;;;;;;;;;;;;;21.29;27.49;99239.72;5058466;28;858;-80
2023/01/02 08:12:20;;;;;;;;;;;;;;;21.05;28.16;99232.19;5058806;28;1077;-80
2023/01/02 08:14:45;;;;;;;;;;;;;;;20.87;28.20;99235.06;5058530;28;921;-79
2023/01/02 08:17:11;;;;;;;;;;;;;;;20.65;28.60;99237.19;5058921;28;1926;-80
2023/01/02 08:19:36;;;;;;;;;;;;;;;20.88;28.34;99236.72;5058105;28;885;-80
2023/01/02 08:22:02;;;;;;;;;;;;;;;21.16;27.75;99230.09;5058945;28;897;-80
2023/01/02 08:24:27;;;;;;;;;;;;;;;21.16;28.02;99235.75;5055664;28;1022;-79
2023/01/02 08:26:52;;;;;;;;;;;;;;;20.97;27.92;99233.44;5058187;28;1043;-79
2023/01/02 08:29:18;;;;;;;;;;;;;;;20.95;28.16;99230.22;5058723;28;1053;-80
2023/01/02 08:31:43;;;;;;;;;;;;;;;20.74;28.66;99220.59;5057237;28;929;-80
2023/01/02 08:34:13;;;;;;;;;;;;;;;21.12;28.16;99222.84;5057971;28;1100;-80
2023/01/02 08:36:38;;;;;;;;;;;;;;;21.27;27.70;99221.53;5058626;28;1983;-80
2023/01/02 08:39:04;;;;;;;;;;;;;;;21.23;27.99;99226.41;5056015;28;1113;-80
2023/01/02 08:41:30;;;;;;;;;;;;;;;21.03;27.85;99220.44;5058328;28;840;-79
2023/01/02 08:43:56;;;;;;;;;;;;;;;20.91;28.22;99218.91;5056649;28;827;-80
2023/01/02 08:46:21;;;;;;;;;;;;;;;20.79;28.42;99217.34;5058195;28;1131;-79
2023/01/02 08:48:46;;;;;;;;;;;;;;;20.93;28.22;99215.66;5057423;28;971;-79
2023/01/02 08:51:12;;;;;;;;;;;;;;;21.19;27.92;99217.97;5058293;28;976;-79
2023/01/02 08:53:37;;;;;;;;;;;;;;;21.21;27.77;99211.88;5057280;28;944;-79
2023/01/02 08:56:22;;;;;;;;;;;;;;;21.45;27.31;99212.97;5057899;28;1902;-80
2023/01/02 08:58:51;;;;;;;;;;;;;;;20.99;28.29;99203.50;5057052;28;931;-79
2023/01/02 09:01:16;;;;;;;;;;;;;;;20.81;28.38;99197.91;5056593;28;987;-79
2023/01/02 09:03:42;;;;;;;;;;;;;;;20.72;28.72;99194.72;5057322;28;870;-79
2023/01/02 09:06:08;;;;;;;;;;;;;;;20.91;28.15;99201.94;5057764;28;815;-79
2023/01/02 09:08:33;;;;;;;;;;;;;;;21.31;27.73;99203.34;5057012;28;935;-79
2023/01/02 09:10:58;;;;;;;;;;;;;;;21.42;27.58;99193.97;5057894;28;1151;-79
2023/01/02 09:13:24;;;;;;;;;;;;;;;21.25;27.67;99199.31;5057440;28;1156;-79
2023/01/02 09:15:49;;;;;;;;;;;;;;;20.86;28.54;99185.38;5057638;28;1150;-80
2023/01/02 09:18:15;;;;;;;;;;;;;;;20.74;28.59;99183.81;5056905;28;1914;-78
2023/01/02 09:20:40;;;;;;;;;;;;;;;20.73;28.88;99173.72;5058062;28;874;-79
2023/01/02 09:23:06;;;;;;;;;;;;;;;21.03;28.54;99172.34;5057051;28;938;-79
2023/01/02 09:25:31;;;;;;;;;;;;;;;21.20;28.05;99171.47;5056467;28;1877;-78
2023/01/02 09:27:56;;;;;;;;;;;;;;;21.24;28.02;99169.41;5056946;28;1127;-79
2023/01/02 09:30:22;;;;;;;;;;;;;;;20.95;28.41;99168.75;5057338;28;1142;-79
2023/01/02 09:32:49;;;;;;;;;;;;;;;20.88;28.40;99168.81;5057543;28;1515;-79
2023/01/02 09:35:15;;;;;;;;;;;;;;;20.72;28.79;99152.28;5053537;28;898;-79
2023/01/02 09:37:40;;;;;;;;;;;;;;;21.03;28.32;99146.88;5057246;28;1930;-79
2023/01/02 09:40:06;;;;;;;;;;;;;;;21.26;27.87;99149.97;5056729;28;1011;-79
2023/01/02 09:42:32;;;;;;;;;;;;;;;21.36;27.77;99150.34;5057518;28;973;-80
2023/01/02 09:44:57;;;;;;;;;;;;;;;20.83;28.51;99149.44;5059161;28;954;-78
2023/01/02 09:47:24;;;;;;;;;;;;;;;20.77;28.72;99140.56;5060684;28;992;-79
2023/01/02 09:49:54;;;;;;;;;;;;;;;20.91;28.47;99144.53;5059640;28;932;-79
2023/01/02 09:52:20;;;;;;;;;;;;;;;21.26;28.29;99147.16;5060155;28;959;-79
2023/01/02 09:54:46;;;;;;;;;;;;;;;21.51;27.54;99137.69;5060741;28;1064;-79
2023/01/02 09:57:18;;;;;;;;;;;;;;;20.90;28.70;99140.09;5061137;28;1910;-79
2023/01/02 09:59:47;;;;;;;;;;;;;;;20.97;28.34;99140.06;5060149;28;1101;-79
2023/01/02 10:02:27;;;;;;;;;;;;;;;20.85;28.55;99144.16;5061281;28;895;-79
2023/01/02 10:05:16;;;;;;;;;;;;;;;21.25;27.93;99141.91;5059259;28;1048;-79
2023/01/02 10:08:01;;;;;;;;;;;;;;;21.43;27.64;99130.47;5038152;28;1029;-79
2023/01/02 10:10:27;;;;;;;;;;;;;;;21.26;28.16;99124.50;4998946;28;1002;-79
2023/01/02 10:13:05;;;;;;;;;;;;;;;21.12;28.36;99133.09;4998792;28;1034;-79
2023/01/02 10:15:30;;;;;;;;;;;;;;;20.80;28.52;99128.44;4982035;28;2085;-80
2023/01/02 10:18:00;;;;;;;;;;;;;;;20.89;28.45;99127.19;4998706;28;1975;-79
2023/01/02 10:20:35;;;;;;;;;;;;;;;21.13;28.38;99120.53;5015211;28;1021;-79
2023/01/02 10:23:16;;;;;;;;;;;;;;;21.31;28.03;99118.44;5015310;28;949;-79
2023/01/02 10:25:43;;;;;;;;;;;;;;;21.27;27.90;99117.59;4998955;28;1254;-79
2023/01/02 10:28:29;;;;;;;;;;;;;;;21.00;28.32;99119.44;5014551;28;1049;-79
2023/01/02 10:30:56;;;;;;;;;;;;;;;20.81;28.89;99106.59;5015167;28;1054;-79
2023/01/02 10:33:25;;;;;;;;;;;;;;;20.70;28.71;99105.88;5014687;28;1526;-80
2023/01/02 10:35:52;;;;;;;;;;;;;;;21.20;28.38;99100.69;5014912;28;1045;-80
2023/01/02 10:38:18;;;;;;;;;;;;;;;21.30;28.04;99099.84;5014455;28;1974;-79
2023/01/02 10:40:44;;;;;;;;;;;;;;;21.38;28.05;99094.09;4998259;28;1197;-79
2023/01/02 10:43:09;;;;;;;;;;;;;;;20.94;28.51;99104.91;5014748;28;1027;-79
2023/01/02 10:45:35;;;;;;;;;;;;;;;20.86;28.93;99102.53;5018078;28;1018;-79
2023/01/02 10:48:00;;;;;;;;;;;;;;;20.76;28.79;99096.53;5009671;28;1064;-79
2023/01/02 10:50:27;;;;;;;;;;;;;;;21.26;28.23;99092.56;5055576;28;1001;-79
2023/01/02 10:52:53;;;;;;;;;;;;;;;21.32;28.07;99085.25;5055041;28;1022;-79
2023/01/02 10:55:28;;;;;;;;;;;;;;;21.28;28.01;99078.78;5055093;28;1039;-79
2023/01/02 10:57:53;;;;;;;;;;;;;;;20.90;28.58;99086.34;5055616;28;1981;-80
2023/01/02 11:00:19;;;;;;;;;;;;;;;20.79;28.85;99078.75;5040125;28;1137;-79
2023/01/02 11:02:51;;;;;;;;;;;;;;;21.05;28.41;99076.53;5039856;28;1088;-79
2023/01/02 11:05:17;;;;;;;;;;;;;;;21.43;27.83;99071.00;5039620;28;953;-79
2023/01/02 11:07:45;;;;;;;;;;;;;;;21.27;28.05;99072.31;5039717;28;955;-79
2023/01/02 11:10:20;;;;;;;;;;;;;;;20.98;28.42;99070.91;5039457;28;942;-79
2023/01/02 11:12:46;;;;;;;;;;;;;;;20.94;28.74;99064.50;5039528;28;986;-80
2023/01/02 11:15:12;;;;;;;;;;;;;;;20.88;28.81;99074.63;5053942;28;997;-79
2023/01/02 11:17:41;;;;;;;;;;;;;;;21.10;28.50;99067.63;5039857;28;1902;-79
2023/01/02 11:20:15;;;;;;;;;;;;;;;21.27;28.18;99066.66;5039519;28;942;-80
2023/01/02 11:22:41;;;;;;;;;;;;;;;21.08;28.37;99059.53;5054757;28;927;-79
2023/01/02 11:25:06;;;;;;;;;;;;;;;20.99;28.48;99067.69;5039331;28;993;-80
2023/01/02 11:27:50;;;;;;;;;;;;;;;20.76;28.95;99068.25;5039604;28;975;-79
2023/01/02 11:30:28;;;;;;;;;;;;;;;21.04;28.42;99057.97;5054906;28;999;-79
2023/01/02 11:33:00;;;;;;;;;;;;;;;21.18;28.52;99055.00;5039055;28;1010;-80
2023/01/02 11:35:48;;;;;;;;;;;;;;;21.30;28.14;99053.75;5039484;28;1047;-79
2023/01/02 11:38:15;;;;;;;;;;;;;;;20.95;28.95;99049.13;5036446;28;1910;-79
2023/01/02 11:40:49;;;;;;;;;;;;;;;20.96;28.62;99045.09;5036761;28;894;-79
2023/01/02 11:46:04;;;;;;;;;;;;;;;21.06;28.52;99039.34;5023278;28;937;-79
2023/01/02 11:48:30;;;;;;;;;;;;;;;21.11;28.70;99035.25;5020215;28;1005;-79
2023/01/02 11:50:55;;;;;;;;;;;;;;;21.16;28.30;99042.50;5020024;28;1002;-79
2023/01/02 11:53:28;;;;;;;;;;;;;;;20.75;28.92;99046.84;5036473;28;980;-79
2023/01/02 11:56:03;;;;;;;;;;;;;;;20.71;28.97;99040.41;4977958;28;1052;-80
2023/01/02 11:58:47;;;;;;;;;;;;;;;20.59;29.17;99032.41;4977295;28;2003;-80
2023/01/02 12:01:31;;;;;;;;;;;;;;;20.90;28.71;99024.91;4978241;28;975;-79
2023/01/02 12:03:57;;;;;;;;;;;;;;;21.21;28.55;99023.03;4977057;28;955;-80
2023/01/02 12:06:24;;;;;;;;;;;;;;;21.00;28.77;99028.88;4977459;28;973;-80
2023/01/02 12:08:58;;;;;;;;;;;;;;;21.02;28.58;99032.09;4976525;28;935;-79
2023/01/02 12:11:32;;;;;;;;;;;;;;;20.70;29.06;99026.69;4977596;28;1018;-79
2023/01/02 12:14:09;;;;;;;;;;;;;;;20.69;29.29;99025.06;4976873;28;990;-80
2023/01/02 12:16:53;;;;;;;;;;;;;;;21.26;28.16;99024.63;4996655;28;1910;-80
2023/01/02 12:19:22;;;;;;;;;;;;;;;21.22;27.94;99018.97;4996440;28;1151;-80
2023/01/02 12:21:54;;;;;;;;;;;;;;;21.11;28.11;99023.94;4980364;28;1101;-79
2023/01/02 12:24:28;;;;;;;;;;;;;;;20.86;28.83;99017.69;4996386;28;990;-80
2023/01/02 12:26:54;;;;;;;;;;;;;;;20.69;29.02;99020.22;5017713;28;934;-79
2023/01/02 12:29:23;;;;;;;;;;;;;;;20.75;29.04;99024.22;5038591;28;1077;-79
2023/01/02 12:31:57;;;;;;;;;;;;;;;21.04;28.35;99007.03;5038614;28;937;-79
2023/01/02 12:34:39;;;;;;;;;;;;;;;21.33;28.22;99013.25;5037722;28;1168;-80
2023/01/02 12:37:04;;;;;;;;;;;;;;;21.08;28.24;99024.75;5053896;28;1905;-79
2023/01/02 12:39:40;;;;;;;;;;;;;;;20.95;28.78;99026.50;5037657;28;1087;-80
2023/01/02 12:42:11;;;;;;;;;;;;;;;20.76;28.79;99017.31;5052202;28;1465;-80
2023/01/02 12:44:39;;;;;;;;;;;;;;;21.12;28.44;99028.38;5051587;28;998;-80
2023/01/02 12:47:09;;;;;;;;;;;;;;;21.26;28.04;99025.44;5035868;28;939;-80
2023/01/02 12:49:47;;;;;;;;;;;;;;;21.29;27.90;99029.44;5051374;28;1195;-80
2023/01/02 12:52:18;;;;;;;;;;;;;;;20.95;28.89;99029.34;5035365;28;826;-79
2023/01/02 12:54:43;;;;;;;;;;;;;;;20.79;28.89;99036.31;5034932;28;866;-80
2023/01/02 12:57:27;;;;;;;;;;;;;;;20.88;28.68;99033.03;5035882;28;1914;-79
2023/01/02 13:00:11;;;;;;;;;;;;;;;21.07;28.59;99031.66;5034803;28;870;-80
2023/01/02 13:02:39;;;;;;;;;;;;;;;21.24;28.32;99033.53;5035221;28;834;-80
2023/01/02 13:05:12;;;;;;;;;;;;;;;21.20;28.47;99035.59;5035251;28;850;-79
2023/01/02 13:07:42;;;;;;;;;;;;;;;21.05;28.40;99025.63;5051489;28;873;-79
2023/01/02 13:10:11;;;;;;;;;;;;;;;20.81;29.02;99022.53;5035134;28;778;-80
2023/01/02 13:12:37;;;;;;;;;;;;;;;20.80;29.11;99031.47;5035758;28;1245;-80